sensor_id;sensor_type;location;lat;lon;timestamp;P1;durP1;ratioP1;P2;durP2;ratioP2
47912;SDS011;33676;51.006;17.180;2022-12-07T00:01:46;9.20;;;7.50;;
47912;SDS011;33676;51.006;17.180;2022-12-07T00:04:17;9.10;;;8.30;;
47912;SDS011;33676;51.006;17.180;2022-12-07T00:06:50;8.50;;;7.60;;
47912;SDS011;33676;51.006;17.180;2022-12-07T00:09:20;10.10;;;7.80;;
47912;SDS011;33676;51.006;17.180;2022-12-07T00:11:50;8.00;;;7.20;;
47912;SDS011;33676;51.006;17.180;2022-12-07T00:14:20;8.90;;;7.20;;
47912;SDS011;33676;51.006;17.180;2022-12-07T00:16:50;5.30;;;4.80;;
47912;SDS011;33676;51.006;17.180;2022-12-07T00:19:19;7.30;;;5.70;;
47912;SDS011;33676;51.006;17.180;2022-12-07T00:21:48;5.10;;;4.60;;
47912;SDS011;33676;51.006;17.180;2022-12-07T00:24:17;5.10;;;4.60;;
47912;SDS011;33676;51.006;17.180;2022-12-07T00:26:45;9.20;;;5.70;;
47912;SDS011;33676;51.006;17.180;2022-12-07T00:29:19;6.70;;;6.00;;
47912;SDS011;33676;51.006;17.180;2022-12-07T00:34:20;5.80;;;5.30;;
47912;SDS011;33676;51.006;17.180;2022-12-07T00:36:50;5.40;;;5.00;;
47912;SDS011;33676;51.006;17.180;2022-12-07T00:39:19;5.10;;;4.70;;
47912;SDS011;33676;51.006;17.180;2022-12-07T00:41:47;5.20;;;4.80;;
47912;SDS011;33676;51.006;17.180;2022-12-07T00:44:16;8.10;;;4.80;;
47912;SDS011;33676;51.006;17.180;2022-12-07T00:46:44;6.20;;;4.70;;
47912;SDS011;33676;51.006;17.180;2022-12-07T00:49:14;5.40;;;4.90;;
47912;SDS011;33676;51.006;17.180;2022-12-07T00:51:42;6.20;;;5.60;;
47912;SDS011;33676;51.006;17.180;2022-12-07T00:54:11;6.60;;;4.80;;
47912;SDS011;33676;51.006;17.180;2022-12-07T00:56:39;4.80;;;4.30;;
47912;SDS011;33676;51.006;17.180;2022-12-07T00:59:11;6.20;;;5.60;;
47912;SDS011;33676;51.006;17.180;2022-12-07T01:01:44;4.30;;;3.80;;
47912;SDS011;33676;51.006;17.180;2022-12-07T01:04:13;5.80;;;5.00;;
47912;SDS011;33676;51.006;17.180;2022-12-07T01:06:42;4.30;;;3.90;;
47912;SDS011;33676;51.006;17.180;2022-12-07T01:09:10;3.40;;;3.20;;
47912;SDS011;33676;51.006;17.180;2022-12-07T01:11:39;3.90;;;3.60;;
47912;SDS011;33676;51.006;17.180;2022-12-07T01:14:08;3.60;;;3.30;;
47912;SDS011;33676;51.006;17.180;2022-12-07T01:16:38;4.10;;;3.20;;
47912;SDS011;33676;51.006;17.180;2022-12-07T01:19:07;3.30;;;3.00;;
47912;SDS011;33676;51.006;17.180;2022-12-07T01:21:35;2.60;;;2.40;;
47912;SDS011;33676;51.006;17.180;2022-12-07T01:24:08;3.70;;;2.80;;
47912;SDS011;33676;51.006;17.180;2022-12-07T01:26:38;3.40;;;2.70;;
47912;SDS011;33676;51.006;17.180;2022-12-07T01:29:07;2.60;;;2.40;;
47912;SDS011;33676;51.006;17.180;2022-12-07T01:31:36;2.60;;;2.40;;
47912;SDS011;33676;51.006;17.180;2022-12-07T01:34:04;2.80;;;2.30;;
47912;SDS011;33676;51.006;17.180;2022-12-07T01:36:35;2.60;;;2.40;;
47912;SDS011;33676;51.006;17.180;2022-12-07T01:39:06;2.00;;;1.70;;
47912;SDS011;33676;51.006;17.180;2022-12-07T01:41:38;2.60;;;2.40;;
47912;SDS011;33676;51.006;17.180;2022-12-07T01:47:01;2.00;;;1.90;;
47912;SDS011;33676;51.006;17.180;2022-12-07T01:49:42;2.80;;;2.20;;
47912;SDS011;33676;51.006;17.180;2022-12-07T01:54:57;2.40;;;1.70;;
47912;SDS011;33676;51.006;17.180;2022-12-07T01:57:30;2.50;;;1.80;;
47912;SDS011;33676;51.006;17.180;2022-12-07T02:00:03;3.30;;;1.70;;
47912;SDS011;33676;51.006;17.180;2022-12-07T02:02:38;2.90;;;1.70;;
47912;SDS011;33676;51.006;17.180;2022-12-07T02:05:12;2.00;;;1.80;;
47912;SDS011;33676;51.006;17.180;2022-12-07T02:07:42;2.60;;;1.70;;
47912;SDS011;33676;51.006;17.180;2022-12-07T02:10:22;1.60;;;1.50;;
47912;SDS011;33676;51.006;17.180;2022-12-07T02:13:16;1.90;;;1.80;;
47912;SDS011;33676;51.006;17.180;2022-12-07T02:27:44;1.40;;;1.40;;
47912;SDS011;33676;51.006;17.180;2022-12-07T02:30:15;1.10;;;1.10;;
47912;SDS011;33676;51.006;17.180;2022-12-07T02:33:05;1.20;;;1.10;;
47912;SDS011;33676;51.006;17.180;2022-12-07T02:38:14;1.40;;;1.30;;
47912;SDS011;33676;51.006;17.180;2022-12-07T02:43:47;2.30;;;1.50;;
47912;SDS011;33676;51.006;17.180;2022-12-07T02:47:05;1.70;;;1.30;;
47912;SDS011;33676;51.006;17.180;2022-12-07T02:49:17;1.60;;;1.50;;
47912;SDS011;33676;51.006;17.180;2022-12-07T02:51:47;1.00;;;1.00;;
47912;SDS011;33676;51.006;17.180;2022-12-07T02:54:18;2.00;;;1.90;;
47912;SDS011;33676;51.006;17.180;2022-12-07T02:57:14;2.40;;;1.40;;
47912;SDS011;33676;51.006;17.180;2022-12-07T03:00:03;1.90;;;1.60;;
47912;SDS011;33676;51.006;17.180;2022-12-07T03:16:33;1.90;;;1.40;;
47912;SDS011;33676;51.006;17.180;2022-12-07T03:19:17;1.30;;;1.20;;
47912;SDS011;33676;51.006;17.180;2022-12-07T03:21:55;1.60;;;1.50;;
47912;SDS011;33676;51.006;17.180;2022-12-07T03:24:33;1.30;;;1.20;;
47912;SDS011;33676;51.006;17.180;2022-12-07T03:30:04;1.30;;;1.20;;
47912;SDS011;33676;51.006;17.180;2022-12-07T03:32:53;1.40;;;1.30;;
47912;SDS011;33676;51.006;17.180;2022-12-07T03:35:37;2.90;;;2.60;;
47912;SDS011;33676;51.006;17.180;2022-12-07T03:38:19;2.40;;;2.10;;
47912;SDS011;33676;51.006;17.180;2022-12-07T03:41:12;3.40;;;2.40;;
47912;SDS011;33676;51.006;17.180;2022-12-07T03:43:47;2.40;;;2.20;;
47912;SDS011;33676;51.006;17.180;2022-12-07T03:52:36;2.30;;;2.20;;
47912;SDS011;33676;51.006;17.180;2022-12-07T03:55:23;2.00;;;1.80;;
47912;SDS011;33676;51.006;17.180;2022-12-07T03:58:08;2.50;;;2.30;;
47912;SDS011;33676;51.006;17.180;2022-12-07T04:00:40;3.10;;;2.80;;
47912;SDS011;33676;51.006;17.180;2022-12-07T04:03:10;2.00;;;1.90;;
47912;SDS011;33676;51.006;17.180;2022-12-07T04:05:39;2.00;;;1.90;;
47912;SDS011;33676;51.006;17.180;2022-12-07T04:08:09;2.40;;;2.30;;
47912;SDS011;33676;51.006;17.180;2022-12-07T04:10:38;2.80;;;2.60;;
47912;SDS011;33676;51.006;17.180;2022-12-07T04:13:06;2.40;;;2.20;;
47912;SDS011;33676;51.006;17.180;2022-12-07T04:15:35;2.10;;;2.00;;
47912;SDS011;33676;51.006;17.180;2022-12-07T04:18:04;2.20;;;2.00;;
47912;SDS011;33676;51.006;17.180;2022-12-07T04:20:32;2.20;;;2.00;;
47912;SDS011;33676;51.006;17.180;2022-12-07T04:23:01;2.10;;;2.00;;
47912;SDS011;33676;51.006;17.180;2022-12-07T04:25:30;2.40;;;2.20;;
47912;SDS011;33676;51.006;17.180;2022-12-07T04:27:58;2.20;;;2.10;;
47912;SDS011;33676;51.006;17.180;2022-12-07T04:30:27;2.50;;;2.40;;
47912;SDS011;33676;51.006;17.180;2022-12-07T04:32:56;1.90;;;1.80;;
47912;SDS011;33676;51.006;17.180;2022-12-07T04:35:25;1.90;;;1.80;;
47912;SDS011;33676;51.006;17.180;2022-12-07T04:37:53;2.00;;;1.90;;
47912;SDS011;33676;51.006;17.180;2022-12-07T04:40:22;1.80;;;1.70;;
47912;SDS011;33676;51.006;17.180;2022-12-07T04:42:50;2.20;;;1.70;;
47912;SDS011;33676;51.006;17.180;2022-12-07T04:45:19;2.00;;;1.90;;
47912;SDS011;33676;51.006;17.180;2022-12-07T04:47:47;2.30;;;1.90;;
47912;SDS011;33676;51.006;17.180;2022-12-07T04:50:16;2.60;;;2.20;;
47912;SDS011;33676;51.006;17.180;2022-12-07T04:52:44;2.10;;;1.90;;
47912;SDS011;33676;51.006;17.180;2022-12-07T04:55:13;1.90;;;1.50;;
47912;SDS011;33676;51.006;17.180;2022-12-07T04:57:42;2.80;;;1.60;;
47912;SDS011;33676;51.006;17.180;2022-12-07T05:00:11;2.30;;;2.10;;
47912;SDS011;33676;51.006;17.180;2022-12-07T05:02:40;1.90;;;1.80;;
47912;SDS011;33676;51.006;17.180;2022-12-07T05:05:09;2.40;;;2.20;;
47912;SDS011;33676;51.006;17.180;2022-12-07T05:07:37;1.80;;;1.80;;
47912;SDS011;33676;51.006;17.180;2022-12-07T05:10:07;1.60;;;1.50;;
47912;SDS011;33676;51.006;17.180;2022-12-07T05:12:36;1.80;;;1.70;;
47912;SDS011;33676;51.006;17.180;2022-12-07T05:15:04;2.70;;;2.30;;
47912;SDS011;33676;51.006;17.180;2022-12-07T05:17:33;4.30;;;3.80;;
47912;SDS011;33676;51.006;17.180;2022-12-07T05:20:02;3.30;;;2.70;;
47912;SDS011;33676;51.006;17.180;2022-12-07T05:22:32;2.80;;;2.60;;
47912;SDS011;33676;51.006;17.180;2022-12-07T05:25:01;5.10;;;3.10;;
47912;SDS011;33676;51.006;17.180;2022-12-07T05:27:29;2.80;;;2.60;;
47912;SDS011;33676;51.006;17.180;2022-12-07T05:29:58;2.30;;;2.10;;
47912;SDS011;33676;51.006;17.180;2022-12-07T05:32:27;2.90;;;2.30;;
47912;SDS011;33676;51.006;17.180;2022-12-07T05:34:56;4.10;;;3.10;;
47912;SDS011;33676;51.006;17.180;2022-12-07T05:37:25;3.80;;;2.30;;
47912;SDS011;33676;51.006;17.180;2022-12-07T05:39:54;3.00;;;2.70;;
47912;SDS011;33676;51.006;17.180;2022-12-07T05:42:22;2.50;;;2.30;;
47912;SDS011;33676;51.006;17.180;2022-12-07T05:44:51;2.30;;;2.10;;
47912;SDS011;33676;51.006;17.180;2022-12-07T05:47:19;2.50;;;2.30;;
47912;SDS011;33676;51.006;17.180;2022-12-07T05:49:48;3.00;;;2.30;;
47912;SDS011;33676;51.006;17.180;2022-12-07T05:52:17;4.10;;;2.60;;
47912;SDS011;33676;51.006;17.180;2022-12-07T05:54:45;4.50;;;4.10;;
47912;SDS011;33676;51.006;17.180;2022-12-07T05:57:14;4.20;;;3.80;;
47912;SDS011;33676;51.006;17.180;2022-12-07T05:59:42;4.70;;;4.30;;
47912;SDS011;33676;51.006;17.180;2022-12-07T06:02:13;8.40;;;5.10;;
47912;SDS011;33676;51.006;17.180;2022-12-07T06:04:45;4.10;;;3.50;;
47912;SDS011;33676;51.006;17.180;2022-12-07T06:07:15;5.10;;;4.70;;
47912;SDS011;33676;51.006;17.180;2022-12-07T06:09:45;6.50;;;5.30;;
47912;SDS011;33676;51.006;17.180;2022-12-07T06:12:14;8.50;;;6.40;;
47912;SDS011;33676;51.006;17.180;2022-12-07T06:15:02;8.50;;;7.10;;
47912;SDS011;33676;51.006;17.180;2022-12-07T06:17:31;10.30;;;8.40;;
47912;SDS011;33676;51.006;17.180;2022-12-07T06:20:00;10.50;;;8.30;;
47912;SDS011;33676;51.006;17.180;2022-12-07T06:22:29;10.70;;;8.70;;
47912;SDS011;33676;51.006;17.180;2022-12-07T06:24:57;11.10;;;8.10;;
47912;SDS011;33676;51.006;17.180;2022-12-07T06:27:26;10.30;;;8.90;;
47912;SDS011;33676;51.006;17.180;2022-12-07T06:29:54;14.20;;;9.40;;
47912;SDS011;33676;51.006;17.180;2022-12-07T06:32:23;20.00;;;11.60;;
47912;SDS011;33676;51.006;17.180;2022-12-07T06:34:51;11.50;;;8.80;;
47912;SDS011;33676;51.006;17.180;2022-12-07T06:37:20;11.30;;;9.40;;
47912;SDS011;33676;51.006;17.180;2022-12-07T06:39:48;13.60;;;10.10;;
47912;SDS011;33676;51.006;17.180;2022-12-07T06:42:17;14.30;;;8.70;;
47912;SDS011;33676;51.006;17.180;2022-12-07T06:44:46;15.10;;;10.40;;
47912;SDS011;33676;51.006;17.180;2022-12-07T06:47:14;14.10;;;11.00;;
47912;SDS011;33676;51.006;17.180;2022-12-07T06:50:04;14.40;;;9.40;;
47912;SDS011;33676;51.006;17.180;2022-12-07T06:52:34;14.70;;;11.50;;
47912;SDS011;33676;51.006;17.180;2022-12-07T06:55:04;12.50;;;10.40;;
47912;SDS011;33676;51.006;17.180;2022-12-07T06:57:33;13.40;;;10.80;;
47912;SDS011;33676;51.006;17.180;2022-12-07T07:00:03;12.40;;;10.30;;
47912;SDS011;33676;51.006;17.180;2022-12-07T07:02:33;12.60;;;10.00;;
47912;SDS011;33676;51.006;17.180;2022-12-07T07:05:02;12.70;;;10.20;;
47912;SDS011;33676;51.006;17.180;2022-12-07T07:07:31;13.80;;;10.90;;
47912;SDS011;33676;51.006;17.180;2022-12-07T07:10:19;14.80;;;12.50;;
47912;SDS011;33676;51.006;17.180;2022-12-07T07:12:47;12.80;;;10.50;;
47912;SDS011;33676;51.006;17.180;2022-12-07T07:15:22;14.10;;;10.90;;
47912;SDS011;33676;51.006;17.180;2022-12-07T07:17:51;11.80;;;10.00;;
47912;SDS011;33676;51.006;17.180;2022-12-07T07:20:19;16.10;;;11.50;;
47912;SDS011;33676;51.006;17.180;2022-12-07T07:22:49;14.30;;;11.90;;
47912;SDS011;33676;51.006;17.180;2022-12-07T07:25:17;16.30;;;12.30;;
47912;SDS011;33676;51.006;17.180;2022-12-07T07:27:46;16.00;;;12.70;;
47912;SDS011;33676;51.006;17.180;2022-12-07T07:30:15;16.80;;;12.30;;
47912;SDS011;33676;51.006;17.180;2022-12-07T07:32:44;15.10;;;10.90;;
47912;SDS011;33676;51.006;17.180;2022-12-07T07:35:12;14.10;;;11.20;;
47912;SDS011;33676;51.006;17.180;2022-12-07T07:37:42;13.80;;;10.40;;
47912;SDS011;33676;51.006;17.180;2022-12-07T07:40:11;12.20;;;10.90;;
47912;SDS011;33676;51.006;17.180;2022-12-07T07:42:42;15.30;;;10.60;;
47912;SDS011;33676;51.006;17.180;2022-12-07T07:45:10;13.30;;;10.80;;
47912;SDS011;33676;51.006;17.180;2022-12-07T07:47:39;14.20;;;11.10;;
47912;SDS011;33676;51.006;17.180;2022-12-07T07:50:08;11.80;;;9.60;;
47912;SDS011;33676;51.006;17.180;2022-12-07T07:52:37;17.10;;;11.30;;
47912;SDS011;33676;51.006;17.180;2022-12-07T07:55:06;13.90;;;10.80;;
47912;SDS011;33676;51.006;17.180;2022-12-07T07:57:38;16.10;;;12.30;;
47912;SDS011;33676;51.006;17.180;2022-12-07T08:00:11;13.20;;;11.80;;
47912;SDS011;33676;51.006;17.180;2022-12-07T08:02:42;13.00;;;11.20;;
47912;SDS011;33676;51.006;17.180;2022-12-07T08:05:12;12.80;;;10.60;;
47912;SDS011;33676;51.006;17.180;2022-12-07T08:07:41;15.00;;;10.80;;
47912;SDS011;33676;51.006;17.180;2022-12-07T08:10:12;16.80;;;11.80;;
47912;SDS011;33676;51.006;17.180;2022-12-07T08:12:42;16.10;;;12.70;;
47912;SDS011;33676;51.006;17.180;2022-12-07T08:15:30;13.00;;;10.70;;
47912;SDS011;33676;51.006;17.180;2022-12-07T08:17:59;16.40;;;12.00;;
47912;SDS011;33676;51.006;17.180;2022-12-07T08:20:30;15.00;;;12.10;;
47912;SDS011;33676;51.006;17.180;2022-12-07T08:23:00;14.90;;;10.40;;
47912;SDS011;33676;51.006;17.180;2022-12-07T08:25:30;14.50;;;10.30;;
47912;SDS011;33676;51.006;17.180;2022-12-07T08:27:59;13.30;;;10.20;;
47912;SDS011;33676;51.006;17.180;2022-12-07T08:30:29;15.70;;;10.90;;
47912;SDS011;33676;51.006;17.180;2022-12-07T08:32:58;16.90;;;11.10;;
47912;SDS011;33676;51.006;17.180;2022-12-07T08:35:27;17.20;;;11.50;;
47912;SDS011;33676;51.006;17.180;2022-12-07T08:37:55;12.50;;;10.60;;
47912;SDS011;33676;51.006;17.180;2022-12-07T08:40:26;13.60;;;10.50;;
47912;SDS011;33676;51.006;17.180;2022-12-07T08:42:54;16.00;;;12.90;;
47912;SDS011;33676;51.006;17.180;2022-12-07T08:45:23;15.00;;;11.60;;
47912;SDS011;33676;51.006;17.180;2022-12-07T08:48:09;14.50;;;10.70;;
47912;SDS011;33676;51.006;17.180;2022-12-07T08:50:41;11.90;;;10.10;;
47912;SDS011;33676;51.006;17.180;2022-12-07T08:53:16;13.30;;;10.30;;
47912;SDS011;33676;51.006;17.180;2022-12-07T08:55:45;12.40;;;9.50;;
47912;SDS011;33676;51.006;17.180;2022-12-07T08:58:15;12.10;;;9.20;;
47912;SDS011;33676;51.006;17.180;2022-12-07T09:00:44;11.60;;;10.50;;
47912;SDS011;33676;51.006;17.180;2022-12-07T09:03:12;15.50;;;10.10;;
47912;SDS011;33676;51.006;17.180;2022-12-07T09:05:41;12.70;;;9.00;;
47912;SDS011;33676;51.006;17.180;2022-12-07T09:08:10;10.00;;;8.90;;
47912;SDS011;33676;51.006;17.180;2022-12-07T09:10:39;11.20;;;8.50;;
47912;SDS011;33676;51.006;17.180;2022-12-07T09:13:07;11.30;;;9.00;;
47912;SDS011;33676;51.006;17.180;2022-12-07T09:15:36;9.90;;;8.00;;
47912;SDS011;33676;51.006;17.180;2022-12-07T09:18:05;11.70;;;9.60;;
47912;SDS011;33676;51.006;17.180;2022-12-07T09:20:33;11.80;;;9.50;;
47912;SDS011;33676;51.006;17.180;2022-12-07T09:23:02;15.40;;;10.80;;
47912;SDS011;33676;51.006;17.180;2022-12-07T09:25:30;13.70;;;11.40;;
47912;SDS011;33676;51.006;17.180;2022-12-07T09:27:59;10.90;;;9.70;;
47912;SDS011;33676;51.006;17.180;2022-12-07T09:30:28;10.90;;;9.50;;
47912;SDS011;33676;51.006;17.180;2022-12-07T09:32:57;13.90;;;10.10;;
47912;SDS011;33676;51.006;17.180;2022-12-07T09:35:26;12.60;;;9.80;;
47912;SDS011;33676;51.006;17.180;2022-12-07T09:37:55;14.60;;;10.20;;
47912;SDS011;33676;51.006;17.180;2022-12-07T09:40:23;13.10;;;10.80;;
47912;SDS011;33676;51.006;17.180;2022-12-07T09:42:53;13.10;;;10.80;;
47912;SDS011;33676;51.006;17.180;2022-12-07T09:48:04;11.20;;;9.90;;
47912;SDS011;33676;51.006;17.180;2022-12-07T09:50:37;12.90;;;9.80;;
47912;SDS011;33676;51.006;17.180;2022-12-07T09:53:09;12.30;;;10.10;;
47912;SDS011;33676;51.006;17.180;2022-12-07T09:55:43;16.00;;;10.60;;
47912;SDS011;33676;51.006;17.180;2022-12-07T09:58:22;11.40;;;9.80;;
47912;SDS011;33676;51.006;17.180;2022-12-07T10:01:08;11.10;;;9.60;;
47912;SDS011;33676;51.006;17.180;2022-12-07T10:03:45;11.70;;;10.40;;
47912;SDS011;33676;51.006;17.180;2022-12-07T10:06:21;11.20;;;8.60;;
47912;SDS011;33676;51.006;17.180;2022-12-07T10:08:50;10.30;;;8.90;;
47912;SDS011;33676;51.006;17.180;2022-12-07T10:11:18;10.00;;;8.20;;
47912;SDS011;33676;51.006;17.180;2022-12-07T10:13:51;8.90;;;8.00;;
47912;SDS011;33676;51.006;17.180;2022-12-07T10:19:19;9.10;;;7.20;;
47912;SDS011;33676;51.006;17.180;2022-12-07T10:22:09;10.10;;;8.90;;
47912;SDS011;33676;51.006;17.180;2022-12-07T10:24:41;10.10;;;7.50;;
47912;SDS011;33676;51.006;17.180;2022-12-07T10:27:30;10.00;;;8.10;;
47912;SDS011;33676;51.006;17.180;2022-12-07T10:30:01;8.90;;;6.80;;
47912;SDS011;33676;51.006;17.180;2022-12-07T10:32:36;6.90;;;6.20;;
47912;SDS011;33676;51.006;17.180;2022-12-07T10:35:27;9.10;;;7.10;;
47912;SDS011;33676;51.006;17.180;2022-12-07T10:37:59;8.20;;;6.40;;
47912;SDS011;33676;51.006;17.180;2022-12-07T10:40:31;6.50;;;5.90;;
47912;SDS011;33676;51.006;17.180;2022-12-07T10:54:18;6.80;;;6.10;;
47912;SDS011;33676;51.006;17.180;2022-12-07T11:05:59;7.70;;;6.40;;
47912;SDS011;33676;51.006;17.180;2022-12-07T11:14:28;8.60;;;7.40;;
47912;SDS011;33676;51.006;17.180;2022-12-07T11:35:54;6.90;;;5.20;;
47912;SDS011;33676;51.006;17.180;2022-12-07T11:39:00;5.40;;;4.40;;
47912;SDS011;33676;51.006;17.180;2022-12-07T11:41:35;6.70;;;5.30;;
47912;SDS011;33676;51.006;17.180;2022-12-07T11:46:47;5.10;;;4.60;;
47912;SDS011;33676;51.006;17.180;2022-12-07T11:52:53;8.00;;;6.60;;
47912;SDS011;33676;51.006;17.180;2022-12-07T11:55:38;5.80;;;5.20;;
47912;SDS011;33676;51.006;17.180;2022-12-07T12:00:49;5.80;;;5.10;;
47912;SDS011;33676;51.006;17.180;2022-12-07T12:03:28;5.80;;;4.70;;
47912;SDS011;33676;51.006;17.180;2022-12-07T12:06:02;4.60;;;4.20;;
47912;SDS011;33676;51.006;17.180;2022-12-07T12:08:43;9.00;;;6.40;;
47912;SDS011;33676;51.006;17.180;2022-12-07T12:23:48;6.00;;;5.40;;
47912;SDS011;33676;51.006;17.180;2022-12-07T12:29:04;9.20;;;4.90;;
47912;SDS011;33676;51.006;17.180;2022-12-07T12:31:39;14.20;;;9.10;;
47912;SDS011;33676;51.006;17.180;2022-12-07T12:34:30;4.90;;;4.40;;
47912;SDS011;33676;51.006;17.180;2022-12-07T12:42:51;13.40;;;9.50;;
47912;SDS011;33676;51.006;17.180;2022-12-07T12:45:26;15.50;;;9.90;;
47912;SDS011;33676;51.006;17.180;2022-12-07T12:48:02;17.10;;;11.50;;
47912;SDS011;33676;51.006;17.180;2022-12-07T12:50:36;19.90;;;14.60;;
47912;SDS011;33676;51.006;17.180;2022-12-07T12:53:22;10.40;;;8.70;;
47912;SDS011;33676;51.006;17.180;2022-12-07T12:56:35;19.70;;;13.10;;
47912;SDS011;33676;51.006;17.180;2022-12-07T12:59:31;5.50;;;5.00;;
47912;SDS011;33676;51.006;17.180;2022-12-07T13:10:45;5.70;;;4.80;;
47912;SDS011;33676;51.006;17.180;2022-12-07T13:15:50;5.20;;;4.40;;
47912;SDS011;33676;51.006;17.180;2022-12-07T13:20:57;6.10;;;4.70;;
47912;SDS011;33676;51.006;17.180;2022-12-07T13:29:15;12.20;;;7.40;;
47912;SDS011;33676;51.006;17.180;2022-12-07T13:31:53;9.50;;;7.10;;
47912;SDS011;33676;51.006;17.180;2022-12-07T13:34:39;20.30;;;11.90;;
47912;SDS011;33676;51.006;17.180;2022-12-07T13:39:54;14.60;;;9.90;;
47912;SDS011;33676;51.006;17.180;2022-12-07T13:42:44;13.10;;;8.60;;
47912;SDS011;33676;51.006;17.180;2022-12-07T13:50:55;7.40;;;6.10;;
47912;SDS011;33676;51.006;17.180;2022-12-07T13:53:25;7.00;;;5.50;;
47912;SDS011;33676;51.006;17.180;2022-12-07T13:55:59;10.80;;;5.80;;
47912;SDS011;33676;51.006;17.180;2022-12-07T13:58:30;7.50;;;5.50;;
47912;SDS011;33676;51.006;17.180;2022-12-07T14:01:01;6.70;;;5.70;;
47912;SDS011;33676;51.006;17.180;2022-12-07T14:03:32;6.50;;;5.90;;
47912;SDS011;33676;51.006;17.180;2022-12-07T14:06:05;9.20;;;6.30;;
47912;SDS011;33676;51.006;17.180;2022-12-07T14:08:45;6.10;;;4.70;;
47912;SDS011;33676;51.006;17.180;2022-12-07T14:11:18;10.40;;;6.30;;
47912;SDS011;33676;51.006;17.180;2022-12-07T14:14:01;8.90;;;6.00;;
47912;SDS011;33676;51.006;17.180;2022-12-07T14:16:34;8.60;;;5.60;;
47912;SDS011;33676;51.006;17.180;2022-12-07T14:19:06;7.30;;;5.30;;
47912;SDS011;33676;51.006;17.180;2022-12-07T14:24:48;7.00;;;4.70;;
47912;SDS011;33676;51.006;17.180;2022-12-07T14:27:22;4.70;;;4.10;;
47912;SDS011;33676;51.006;17.180;2022-12-07T14:29:54;4.90;;;3.90;;
47912;SDS011;33676;51.006;17.180;2022-12-07T14:32:25;9.60;;;4.60;;
47912;SDS011;33676;51.006;17.180;2022-12-07T14:35:12;6.70;;;5.60;;
47912;SDS011;33676;51.006;17.180;2022-12-07T14:37:44;4.70;;;3.70;;
47912;SDS011;33676;51.006;17.180;2022-12-07T14:40:21;4.20;;;3.80;;
47912;SDS011;33676;51.006;17.180;2022-12-07T14:43:21;3.70;;;3.40;;
47912;SDS011;33676;51.006;17.180;2022-12-07T14:45:50;4.40;;;4.00;;
47912;SDS011;33676;51.006;17.180;2022-12-07T14:48:19;8.50;;;5.30;;
47912;SDS011;33676;51.006;17.180;2022-12-07T14:51:08;8.60;;;4.80;;
47912;SDS011;33676;51.006;17.180;2022-12-07T14:54:00;9.20;;;7.10;;
47912;SDS011;33676;51.006;17.180;2022-12-07T14:56:29;14.00;;;9.60;;
47912;SDS011;33676;51.006;17.180;2022-12-07T14:58:57;11.90;;;8.90;;
47912;SDS011;33676;51.006;17.180;2022-12-07T15:01:26;10.00;;;6.60;;
47912;SDS011;33676;51.006;17.180;2022-12-07T15:03:54;8.60;;;6.80;;
47912;SDS011;33676;51.006;17.180;2022-12-07T15:06:23;7.40;;;5.30;;
47912;SDS011;33676;51.006;17.180;2022-12-07T15:08:52;7.00;;;5.60;;
47912;SDS011;33676;51.006;17.180;2022-12-07T15:11:21;8.10;;;7.00;;
47912;SDS011;33676;51.006;17.180;2022-12-07T15:13:49;7.80;;;4.90;;
47912;SDS011;33676;51.006;17.180;2022-12-07T15:16:38;4.80;;;4.00;;
47912;SDS011;33676;51.006;17.180;2022-12-07T15:19:29;7.20;;;5.40;;
47912;SDS011;33676;51.006;17.180;2022-12-07T15:21:58;7.30;;;6.10;;
47912;SDS011;33676;51.006;17.180;2022-12-07T15:24:28;11.30;;;7.80;;
47912;SDS011;33676;51.006;17.180;2022-12-07T15:26:56;17.40;;;10.80;;
47912;SDS011;33676;51.006;17.180;2022-12-07T15:29:25;12.20;;;8.70;;
47912;SDS011;33676;51.006;17.180;2022-12-07T15:31:54;10.20;;;7.00;;
47912;SDS011;33676;51.006;17.180;2022-12-07T15:34:26;9.60;;;7.10;;
47912;SDS011;33676;51.006;17.180;2022-12-07T15:37:05;9.70;;;6.30;;
47912;SDS011;33676;51.006;17.180;2022-12-07T15:39:36;12.10;;;7.90;;
47912;SDS011;33676;51.006;17.180;2022-12-07T15:42:05;10.40;;;7.10;;
47912;SDS011;33676;51.006;17.180;2022-12-07T15:44:33;7.70;;;5.80;;
47912;SDS011;33676;51.006;17.180;2022-12-07T15:47:21;7.50;;;5.50;;
47912;SDS011;33676;51.006;17.180;2022-12-07T15:49:49;17.50;;;7.50;;
47912;SDS011;33676;51.006;17.180;2022-12-07T15:52:18;5.20;;;4.70;;
47912;SDS011;33676;51.006;17.180;2022-12-07T15:54:47;13.20;;;10.60;;
47912;SDS011;33676;51.006;17.180;2022-12-07T15:57:16;14.80;;;12.40;;
47912;SDS011;33676;51.006;17.180;2022-12-07T15:59:52;16.60;;;10.50;;
47912;SDS011;33676;51.006;17.180;2022-12-07T16:02:22;43.50;;;26.60;;
47912;SDS011;33676;51.006;17.180;2022-12-07T16:04:52;25.40;;;16.80;;
47912;SDS011;33676;51.006;17.180;2022-12-07T16:07:21;12.60;;;10.40;;
47912;SDS011;33676;51.006;17.180;2022-12-07T16:09:50;9.60;;;6.80;;
47912;SDS011;33676;51.006;17.180;2022-12-07T16:12:18;14.90;;;11.70;;
47912;SDS011;33676;51.006;17.180;2022-12-07T16:14:47;10.20;;;7.60;;
47912;SDS011;33676;51.006;17.180;2022-12-07T16:17:15;11.00;;;7.30;;
47912;SDS011;33676;51.006;17.180;2022-12-07T16:19:44;11.90;;;8.90;;
47912;SDS011;33676;51.006;17.180;2022-12-07T16:22:13;14.10;;;9.50;;
47912;SDS011;33676;51.006;17.180;2022-12-07T16:24:41;8.00;;;5.30;;
47912;SDS011;33676;51.006;17.180;2022-12-07T16:27:10;8.30;;;6.10;;
47912;SDS011;33676;51.006;17.180;2022-12-07T16:29:39;5.80;;;5.10;;
47912;SDS011;33676;51.006;17.180;2022-12-07T16:32:07;7.40;;;5.00;;
47912;SDS011;33676;51.006;17.180;2022-12-07T16:34:36;8.10;;;4.60;;
47912;SDS011;33676;51.006;17.180;2022-12-07T16:37:04;6.00;;;4.60;;
47912;SDS011;33676;51.006;17.180;2022-12-07T16:39:33;7.00;;;4.80;;
47912;SDS011;33676;51.006;17.180;2022-12-07T16:42:02;7.60;;;5.40;;
47912;SDS011;33676;51.006;17.180;2022-12-07T16:44:31;5.20;;;4.70;;
47912;SDS011;33676;51.006;17.180;2022-12-07T16:47:00;13.00;;;9.50;;
47912;SDS011;33676;51.006;17.180;2022-12-07T16:49:29;14.10;;;9.60;;
47912;SDS011;33676;51.006;17.180;2022-12-07T16:51:58;6.60;;;5.40;;
47912;SDS011;33676;51.006;17.180;2022-12-07T16:54:47;7.70;;;4.60;;
47912;SDS011;33676;51.006;17.180;2022-12-07T16:57:16;6.90;;;4.10;;
47912;SDS011;33676;51.006;17.180;2022-12-07T16:59:51;8.30;;;6.60;;
47912;SDS011;33676;51.006;17.180;2022-12-07T17:02:20;9.60;;;7.00;;
47912;SDS011;33676;51.006;17.180;2022-12-07T17:04:50;10.10;;;7.10;;
47912;SDS011;33676;51.006;17.180;2022-12-07T17:07:19;14.60;;;10.20;;
47912;SDS011;33676;51.006;17.180;2022-12-07T17:09:47;20.20;;;13.50;;
47912;SDS011;33676;51.006;17.180;2022-12-07T17:12:17;12.40;;;8.20;;
47912;SDS011;33676;51.006;17.180;2022-12-07T17:14:45;10.10;;;7.40;;
47912;SDS011;33676;51.006;17.180;2022-12-07T17:17:33;11.40;;;7.80;;
47912;SDS011;33676;51.006;17.180;2022-12-07T17:20:02;8.90;;;7.60;;
47912;SDS011;33676;51.006;17.180;2022-12-07T17:22:32;8.90;;;7.30;;
47912;SDS011;33676;51.006;17.180;2022-12-07T17:25:00;7.80;;;5.80;;
47912;SDS011;33676;51.006;17.180;2022-12-07T17:27:30;7.50;;;6.70;;
47912;SDS011;33676;51.006;17.180;2022-12-07T17:29:59;6.20;;;4.90;;
47912;SDS011;33676;51.006;17.180;2022-12-07T17:32:28;6.40;;;5.60;;
47912;SDS011;33676;51.006;17.180;2022-12-07T17:34:56;6.80;;;4.90;;
47912;SDS011;33676;51.006;17.180;2022-12-07T17:37:25;5.60;;;4.70;;